Location Norrisville, MD, US

ob CW6888 222115Z AUTO 20002G05KT CLR 18/01 A3033 RMK SLPNO 

2018.04.22 2115 UTC
Wind from the SSW (196 degrees) at 2.0 MPH (2 KT) gusting to 6.0 MPH (5 KT)
Visibility    Mile(s)
Sky Conditions  clear
Temperature 64.70 F (18 C)
Dew Point 33.40 F (1 C)
Relative Humidity 31%
Pressure   30.33 in. Hg (1027 hPa)
Rain  0.00 in.
Daily Rain  in.

Station Name  Sola Virtus Observatory
Longitude, Latitude  -76.5447, 39.7025
Elevation 738
Station URL http://sola-virtus-observatory.org
Software Type VWS V15.00